Time;durP1;ratioP1;P1;durP2;ratioP2;P2;SDS_P1;SDS_P2;PMS_P1;PMS_P2;Temp;Humidity;BMP_temperature;BMP_pressure;BME280_temperature;BME280_humidity;BME280_pressure;Samples;Min_cycle;Max_cycle;Signal;HPM_P1;HPM_P2
2020/12/19 00:00:19;;;;;;;19.60;17.00;;;4.10;99.90;;;;;;5048254;28;20486;-73
2020/12/19 00:02:47;;;;;;;20.03;16.87;;;4.00;99.90;;;;;;5048597;28;20448;-72
2020/12/19 00:05:13;;;;;;;18.50;15.70;;;4.00;99.90;;;;;;5048334;28;20843;-75
2020/12/19 00:07:39;;;;;;;18.03;15.70;;;4.00;99.90;;;;;;5049559;28;20456;-75
2020/12/19 00:10:06;;;;;;;20.53;16.03;;;4.10;99.90;;;;;;5049317;28;20535;-75
2020/12/19 00:12:32;;;;;;;21.40;17.80;;;4.20;99.90;;;;;;5049169;28;20440;-77
2020/12/19 00:14:59;;;;;;;20.47;16.67;;;4.30;99.90;;;;;;5046917;28;20521;-75
2020/12/19 00:17:25;;;;;;;24.30;16.87;;;4.50;99.90;;;;;;5048959;28;20881;-75
2020/12/19 00:19:52;;;;;;;17.00;14.80;;;4.50;99.90;;;;;;5046595;28;20890;-75
2020/12/19 00:22:21;;;;;;;21.20;16.00;;;4.50;99.90;;;;;;5049269;28;20938;-75
2020/12/19 00:24:48;;;;;;;19.23;16.23;;;4.40;99.90;;;;;;5049445;28;20468;-74
2020/12/19 00:27:14;;;;;;;19.43;16.87;;;4.30;99.90;;;;;;5049028;28;20939;-75
2020/12/19 00:29:40;;;;;;;18.57;16.40;;;4.20;99.90;;;;;;5050380;28;20527;-78
2020/12/19 00:32:08;;;;;;;18.63;16.63;;;4.10;99.90;;;;;;5050204;28;20759;-75
2020/12/19 00:34:35;;;;;;;21.23;15.60;;;4.10;99.90;;;;;;5048624;28;20504;-76
2020/12/19 00:37:02;;;;;;;18.97;15.60;;;4.00;99.90;;;;;;5048026;28;20523;-76
2020/12/19 00:39:29;;;;;;;18.90;16.93;;;4.00;99.90;;;;;;5048932;28;20444;-76
2020/12/19 00:41:56;;;;;;;18.00;15.50;;;4.00;99.90;;;;;;5049581;28;20860;-75
2020/12/19 00:44:22;;;;;;;19.00;15.90;;;4.00;99.90;;;;;;5048604;28;21000;-76
2020/12/19 00:46:49;;;;;;;19.90;16.80;;;4.10;99.90;;;;;;5049288;28;20531;-73
2020/12/19 00:49:15;;;;;;;19.50;16.03;;;4.10;99.90;;;;;;5049969;28;20440;-76
2020/12/19 00:51:42;;;;;;;16.43;14.33;;;4.10;99.90;;;;;;5050220;28;20534;-76
2020/12/19 00:54:09;;;;;;;19.90;17.57;;;4.10;99.90;;;;;;5049632;28;20583;-76
2020/12/19 00:56:35;;;;;;;20.07;16.50;;;4.10;99.90;;;;;;5050319;28;20450;-76
2020/12/19 00:59:02;;;;;;;17.97;14.10;;;4.10;99.90;;;;;;5050041;28;20540;-76
2020/12/19 01:01:28;;;;;;;23.13;18.07;;;4.10;99.90;;;;;;5049203;28;20490;-75
2020/12/19 01:03:56;;;;;;;18.60;16.30;;;4.20;99.90;;;;;;5048607;28;20479;-76
2020/12/19 01:06:24;;;;;;;20.80;16.03;;;4.20;99.90;;;;;;5049281;28;21235;-76
2020/12/19 01:08:53;;;;;;;20.17;16.77;;;4.30;99.90;;;;;;5049347;28;20448;-76
2020/12/19 01:11:21;;;;;;;19.83;16.43;;;4.30;99.90;;;;;;5049369;28;20505;-75
2020/12/19 01:13:49;;;;;;;19.83;16.23;;;4.30;99.90;;;;;;5048815;28;20539;-76
2020/12/19 01:16:16;;;;;;;18.40;15.40;;;4.30;99.90;;;;;;5050214;28;20868;-76
2020/12/19 01:18:43;;;;;;;17.33;15.20;;;4.10;99.90;;;;;;5049312;28;20440;-76
2020/12/19 01:21:13;;;;;;;17.40;15.53;;;4.00;99.90;;;;;;5050217;28;20533;-75
2020/12/19 01:23:39;;;;;;;21.00;16.43;;;4.00;99.90;;;;;;5049836;28;20490;-74
2020/12/19 01:26:07;;;;;;;18.57;15.50;;;4.00;99.90;;;;;;5049248;28;20546;-76
2020/12/19 01:28:34;;;;;;;17.90;15.83;;;4.10;99.90;;;;;;5049237;28;20526;-74
2020/12/19 01:31:02;;;;;;;19.80;16.27;;;4.10;99.90;;;;;;5049538;28;20447;-76
2020/12/19 01:33:29;;;;;;;19.40;16.73;;;4.00;99.90;;;;;;5048660;28;20436;-77
2020/12/19 01:35:55;;;;;;;23.30;17.63;;;4.00;99.90;;;;;;5048170;28;20524;-75
2020/12/19 01:38:22;;;;;;;24.50;17.20;;;4.00;99.90;;;;;;5049420;28;20452;-76
2020/12/19 01:40:49;;;;;;;17.77;14.83;;;4.00;99.90;;;;;;5049411;28;20476;-76
2020/12/19 01:43:15;;;;;;;21.97;16.53;;;4.00;99.90;;;;;;5048827;28;20943;-74
2020/12/19 01:45:43;;;;;;;20.67;16.50;;;3.90;99.90;;;;;;5050980;28;21002;-74
2020/12/19 01:48:19;;;;;;;21.10;16.33;;;3.80;99.90;;;;;;5052344;28;20456;-77
2020/12/19 01:50:47;;;;;;;23.63;17.30;;;3.70;99.90;;;;;;5051046;28;20483;-76
2020/12/19 01:53:14;;;;;;;19.80;16.50;;;3.60;99.90;;;;;;5049081;28;20565;-74
2020/12/19 01:55:41;;;;;;;19.83;15.73;;;3.70;99.90;;;;;;5048849;28;20525;-76
2020/12/19 01:58:08;;;;;;;20.87;16.00;;;3.70;99.90;;;;;;5049336;28;20559;-74
2020/12/19 02:00:37;;;;;;;17.60;15.53;;;3.70;99.90;;;;;;5052866;28;20488;-76
2020/12/19 02:03:04;;;;;;;20.40;17.00;;;3.60;99.90;;;;;;5053154;28;20443;-76
2020/12/19 02:05:33;;;;;;;22.30;17.33;;;3.70;99.90;;;;;;5052699;28;20601;-76
2020/12/19 02:08:00;;;;;;;17.27;14.60;;;3.60;99.90;;;;;;5053105;28;20513;-76
2020/12/19 02:10:26;;;;;;;17.90;15.53;;;3.70;99.90;;;;;;5054417;28;20444;-74
2020/12/19 02:12:53;;;;;;;18.67;16.60;;;3.90;99.90;;;;;;5055232;28;20538;-75
2020/12/19 02:15:19;;;;;;;17.87;15.97;;;3.90;99.90;;;;;;5051864;28;20822;-76
2020/12/19 02:17:45;;;;;;;19.57;16.40;;;3.90;99.90;;;;;;5052446;28;20448;-77
2020/12/19 02:20:13;;;;;;;17.17;15.37;;;3.90;99.90;;;;;;5053278;28;20487;-78
2020/12/19 02:22:40;;;;;;;18.30;15.60;;;3.80;99.90;;;;;;5052605;28;20846;-77
2020/12/19 02:25:07;;;;;;;20.43;16.80;;;3.80;99.90;;;;;;5052149;28;20463;-78
2020/12/19 02:27:33;;;;;;;19.90;17.07;;;4.00;99.90;;;;;;5053710;28;20534;-76
2020/12/19 02:30:00;;;;;;;21.13;15.40;;;4.00;99.90;;;;;;5052541;28;20448;-77
2020/12/19 02:32:26;;;;;;;19.10;15.97;;;3.90;99.90;;;;;;5053205;28;21340;-77
2020/12/19 02:34:53;;;;;;;19.57;14.70;;;3.90;99.90;;;;;;5051517;28;20610;-76
2020/12/19 02:37:19;;;;;;;18.83;15.10;;;3.70;99.90;;;;;;5051609;28;20523;-76
2020/12/19 02:39:45;;;;;;;20.57;15.30;;;3.60;99.90;;;;;;5054771;28;20566;-77
2020/12/19 02:42:13;;;;;;;16.70;14.40;;;3.60;99.90;;;;;;5054741;28;20539;-77
2020/12/19 02:44:39;;;;;;;17.77;13.83;;;3.40;99.90;;;;;;5054312;28;20555;-77
2020/12/19 02:47:05;;;;;;;18.77;16.40;;;3.40;99.90;;;;;;5054921;28;20459;-76
2020/12/19 02:49:32;;;;;;;18.33;16.40;;;3.30;99.90;;;;;;5054829;28;20477;-76
2020/12/19 02:51:58;;;;;;;18.40;15.37;;;3.20;99.90;;;;;;5054652;28;20456;-77
2020/12/19 02:54:24;;;;;;;18.70;14.80;;;3.20;99.90;;;;;;5053813;28;20554;-77
2020/12/19 02:56:51;;;;;;;15.77;14.17;;;3.20;99.90;;;;;;5054935;28;20455;-77
2020/12/19 02:59:18;;;;;;;20.00;15.30;;;3.40;99.90;;;;;;5054606;28;20882;-76
2020/12/19 03:01:44;;;;;;;28.83;17.50;;;3.40;99.90;;;;;;5054227;28;20536;-77
2020/12/19 03:04:10;;;;;;;19.80;15.40;;;3.40;99.90;;;;;;5054011;28;20460;-77
2020/12/19 03:06:37;;;;;;;19.63;15.97;;;3.40;99.90;;;;;;5054378;28;20487;-77
2020/12/19 03:09:04;;;;;;;19.73;15.87;;;3.40;99.90;;;;;;5054575;28;20512;-75
2020/12/19 03:11:30;;;;;;;20.80;17.10;;;3.40;99.90;;;;;;5053724;28;20566;-77
2020/12/19 03:13:57;;;;;;;21.03;16.73;;;3.40;99.90;;;;;;5053064;28;20458;-78
2020/12/19 03:16:24;;;;;;;19.33;16.67;;;3.40;99.90;;;;;;5053461;28;21014;-77
2020/12/19 03:18:50;;;;;;;24.00;18.37;;;3.40;99.90;;;;;;5052261;28;20475;-77
2020/12/19 03:21:17;;;;;;;23.27;17.33;;;3.30;99.90;;;;;;5053969;28;20535;-77
2020/12/19 03:23:43;;;;;;;20.07;16.30;;;3.30;99.90;;;;;;5052183;28;20488;-75
2020/12/19 03:26:09;;;;;;;20.70;17.67;;;3.50;99.90;;;;;;5054151;28;20440;-76
2020/12/19 03:28:36;;;;;;;19.67;16.77;;;3.50;99.90;;;;;;5054033;28;20450;-77
2020/12/19 03:31:02;;;;;;;21.03;15.97;;;3.40;99.90;;;;;;5054399;28;20540;-77
2020/12/19 03:33:30;;;;;;;23.17;16.17;;;3.30;99.90;;;;;;5053767;28;20448;-76
2020/12/19 03:35:56;;;;;;;21.17;16.10;;;3.30;99.90;;;;;;5052800;28;20468;-77
2020/12/19 03:38:22;;;;;;;18.83;14.70;;;3.20;99.90;;;;;;5053401;28;20475;-77
2020/12/19 03:40:49;;;;;;;16.83;14.57;;;3.10;99.90;;;;;;5052942;28;21145;-76
2020/12/19 03:43:15;;;;;;;18.00;15.57;;;3.00;99.90;;;;;;5053109;28;20536;-75
2020/12/19 03:45:41;;;;;;;17.40;14.90;;;3.00;99.90;;;;;;5051795;28;20472;-77
2020/12/19 03:48:08;;;;;;;15.97;13.37;;;2.90;99.90;;;;;;5052165;28;20451;-77
2020/12/19 03:50:35;;;;;;;19.97;15.27;;;2.80;99.90;;;;;;5052097;28;20527;-75
2020/12/19 03:53:01;;;;;;;17.03;13.97;;;2.80;99.90;;;;;;5052234;28;20440;-76
2020/12/19 03:55:28;;;;;;;17.73;13.63;;;2.80;99.90;;;;;;5051173;28;20500;-76
2020/12/19 03:57:54;;;;;;;19.50;13.67;;;2.70;99.90;;;;;;5051969;28;20573;-78
2020/12/19 04:00:21;;;;;;;18.00;14.03;;;2.60;99.90;;;;;;5052238;28;20633;-77
2020/12/19 04:02:47;;;;;;;16.43;13.90;;;2.60;99.90;;;;;;5052411;28;20447;-76
2020/12/19 04:05:13;;;;;;;20.23;13.17;;;2.60;99.90;;;;;;5051545;28;20573;-75
2020/12/19 04:07:41;;;;;;;16.50;13.97;;;2.50;99.90;;;;;;5052282;28;20462;-75
2020/12/19 04:10:09;;;;;;;17.50;14.10;;;2.60;99.90;;;;;;5052754;28;20967;-76
2020/12/19 04:12:35;;;;;;;14.50;12.90;;;2.60;99.90;;;;;;5050496;28;20483;-77
2020/12/19 04:15:02;;;;;;;21.57;15.10;;;2.40;99.90;;;;;;5049812;28;20578;-77
2020/12/19 04:17:29;;;;;;;19.43;15.80;;;2.40;99.90;;;;;;5051945;28;20572;-76
2020/12/19 04:19:55;;;;;;;21.20;15.90;;;2.40;99.90;;;;;;5051555;28;20541;-77
2020/12/19 04:22:21;;;;;;;21.83;15.50;;;2.30;99.90;;;;;;5050830;28;20435;-77
2020/12/19 04:24:48;;;;;;;21.90;16.87;;;2.40;99.90;;;;;;5050679;28;20567;-77
2020/12/19 04:27:15;;;;;;;21.20;16.63;;;2.50;99.90;;;;;;5051419;28;20481;-77
2020/12/19 04:29:41;;;;;;;20.87;16.30;;;2.70;99.90;;;;;;5051248;28;20447;-77
2020/12/19 04:32:07;;;;;;;19.87;16.07;;;2.60;99.90;;;;;;5051360;28;20460;-77
2020/12/19 04:34:34;;;;;;;17.50;14.27;;;2.60;99.90;;;;;;5050225;28;20499;-77
2020/12/19 04:37:00;;;;;;;19.27;14.63;;;2.50;99.90;;;;;;5052854;28;20989;-77
2020/12/19 04:39:27;;;;;;;22.27;15.37;;;2.50;99.90;;;;;;5056222;28;20539;-76
2020/12/19 04:41:54;;;;;;;18.37;16.43;;;2.50;99.90;;;;;;5054673;28;21021;-77
2020/12/19 04:44:21;;;;;;;18.03;15.53;;;2.40;99.90;;;;;;5053563;28;20610;-77
2020/12/19 04:46:47;;;;;;;16.13;14.20;;;2.30;99.90;;;;;;5052393;28;20946;-77
2020/12/19 04:49:14;;;;;;;20.13;15.50;;;2.30;99.90;;;;;;5050741;28;20466;-77
2020/12/19 04:51:40;;;;;;;18.47;15.07;;;2.20;99.90;;;;;;5050549;28;20926;-77
2020/12/19 04:54:07;;;;;;;27.47;16.67;;;2.20;99.90;;;;;;5050026;28;20551;-76
2020/12/19 04:56:34;;;;;;;19.33;17.30;;;2.30;99.90;;;;;;5051024;28;20456;-76
2020/12/19 04:59:03;;;;;;;24.30;18.07;;;2.50;99.90;;;;;;5055429;28;20444;-76
2020/12/19 05:01:29;;;;;;;24.27;18.23;;;2.50;99.90;;;;;;5054775;28;21040;-77
2020/12/19 05:03:56;;;;;;;26.90;19.17;;;2.60;99.90;;;;;;5052733;28;20478;-75
2020/12/19 05:06:24;;;;;;;19.13;16.77;;;2.50;99.90;;;;;;5050548;28;20478;-77
2020/12/19 05:08:51;;;;;;;20.07;15.73;;;2.40;99.90;;;;;;5050527;28;20454;-77
2020/12/19 05:11:19;;;;;;;20.50;16.53;;;2.40;99.90;;;;;;5050528;28;20535;-74
2020/12/19 05:13:46;;;;;;;19.73;16.50;;;2.30;99.90;;;;;;5050164;28;20550;-77
2020/12/19 05:16:15;;;;;;;20.33;16.07;;;2.30;99.90;;;;;;5051151;28;20523;-77
2020/12/19 05:18:42;;;;;;;27.73;17.50;;;2.30;99.90;;;;;;5050683;28;20570;-77
2020/12/19 05:21:10;;;;;;;20.87;18.60;;;2.40;99.90;;;;;;5050408;28;20475;-76
2020/12/19 05:23:38;;;;;;;22.10;18.20;;;2.50;99.90;;;;;;5049477;28;20447;-75
2020/12/19 05:26:06;;;;;;;23.53;17.33;;;2.50;99.90;;;;;;5049458;28;20467;-77
2020/12/19 05:28:33;;;;;;;20.57;16.83;;;2.50;99.90;;;;;;5049538;28;20601;-77
2020/12/19 05:31:00;;;;;;;22.80;17.80;;;2.50;99.90;;;;;;5048990;28;20444;-77
2020/12/19 05:33:32;;;;;;;26.50;17.77;;;2.40;99.90;;;;;;5048699;28;21038;-74
2020/12/19 05:35:59;;;;;;;21.70;18.03;;;2.30;99.90;;;;;;5048320;28;20464;-76
2020/12/19 05:38:28;;;;;;;19.50;16.37;;;2.20;99.90;;;;;;5049217;28;20934;-77
2020/12/19 05:40:55;;;;;;;22.10;16.30;;;2.10;99.90;;;;;;5049209;28;20494;-76
2020/12/19 05:43:22;;;;;;;21.43;15.50;;;2.00;99.90;;;;;;5048622;28;20494;-77
2020/12/19 05:45:49;;;;;;;19.37;16.03;;;2.00;99.90;;;;;;5048836;28;20463;-77
2020/12/19 05:48:15;;;;;;;25.00;16.53;;;1.90;99.90;;;;;;5049333;28;20535;-75
2020/12/19 05:50:42;;;;;;;19.20;14.93;;;1.80;99.90;;;;;;5048948;28;20950;-77
2020/12/19 05:53:09;;;;;;;19.07;15.23;;;1.80;99.90;;;;;;5048713;28;21021;-76
2020/12/19 05:55:36;;;;;;;16.83;14.83;;;1.80;99.90;;;;;;5048264;28;21134;-77
2020/12/19 05:58:05;;;;;;;19.80;15.30;;;1.70;99.90;;;;;;5049188;28;20450;-74
2020/12/19 06:00:32;;;;;;;20.40;15.93;;;1.80;99.90;;;;;;5049419;28;20572;-77
2020/12/19 06:03:01;;;;;;;20.87;16.90;;;1.70;99.90;;;;;;5049108;28;20444;-77
2020/12/19 06:05:30;;;;;;;21.50;16.83;;;1.70;99.90;;;;;;5048181;28;20521;-77
2020/12/19 06:07:58;;;;;;;22.37;18.07;;;1.60;99.90;;;;;;5049129;28;20992;-77
2020/12/19 06:10:25;;;;;;;20.70;17.00;;;1.80;99.90;;;;;;5049359;28;20527;-77
2020/12/19 06:12:56;;;;;;;22.33;16.83;;;1.90;99.90;;;;;;5049423;28;20454;-76
2020/12/19 06:15:50;;;;;;;18.90;15.67;;;1.80;99.90;;;;;;5048294;28;20472;-77
2020/12/19 06:18:28;;;;;;;17.53;15.37;;;1.70;99.90;;;;;;5052144;28;20885;-77
2020/12/19 06:20:56;;;;;;;24.35;20.00;;;1.70;99.90;;;;;;5051192;28;20549;-77
2020/12/19 06:23:27;;;;;;;27.53;19.53;;;1.70;99.90;;;;;;5049946;28;20904;-77
2020/12/19 06:25:54;;;;;;;23.37;18.63;;;1.70;99.90;;;;;;5048684;28;20471;-76
2020/12/19 06:28:50;;;;;;;20.93;16.90;;;1.80;99.90;;;;;;5048730;28;20882;-77
2020/12/19 06:31:19;;;;;;;21.07;16.63;;;1.80;99.90;;;;;;5048419;28;20475;-75
2020/12/19 06:33:47;;;;;;;19.40;15.80;;;1.80;99.90;;;;;;5047652;28;20992;-75
2020/12/19 06:36:21;;;;;;;20.70;15.97;;;1.80;99.90;;;;;;5048008;28;20539;-75
2020/12/19 06:38:50;;;;;;;19.03;16.30;;;1.80;99.90;;;;;;5047958;28;20550;-77
2020/12/19 06:41:39;;;;;;;18.07;15.70;;;1.80;99.90;;;;;;5048138;28;20517;-75
2020/12/19 06:44:06;;;;;;;28.40;17.60;;;1.80;99.90;;;;;;5047077;28;20475;-76
2020/12/19 06:46:33;;;;;;;21.43;18.47;;;1.90;99.90;;;;;;5050799;28;20563;-76
2020/12/19 06:48:59;;;;;;;24.00;19.87;;;1.90;99.90;;;;;;5051583;28;20447;-76
2020/12/19 06:51:26;;;;;;;28.33;17.90;;;2.00;99.90;;;;;;5051503;28;20522;-76
2020/12/19 06:53:55;;;;;;;27.20;20.27;;;2.10;99.90;;;;;;5050854;28;20444;-76
2020/12/19 06:56:28;;;;;;;21.27;17.53;;;2.10;99.90;;;;;;5051438;28;20475;-76
2020/12/19 06:59:01;;;;;;;20.37;17.40;;;2.10;99.90;;;;;;5051499;28;20440;-76
2020/12/19 07:01:28;;;;;;;21.70;17.97;;;2.10;99.90;;;;;;5051284;28;20570;-76
2020/12/19 07:03:55;;;;;;;22.53;19.47;;;2.10;99.90;;;;;;5050684;28;20443;-76
2020/12/19 07:06:21;;;;;;;22.80;19.03;;;2.10;99.90;;;;;;5051052;28;20927;-76
2020/12/19 07:08:48;;;;;;;20.90;17.90;;;2.00;99.90;;;;;;5050940;28;20483;-76
2020/12/19 07:11:41;;;;;;;19.67;16.77;;;2.10;99.90;;;;;;5051090;28;20446;-76
2020/12/19 07:14:15;;;;;;;21.23;17.60;;;2.20;99.90;;;;;;5050505;28;20479;-76
2020/12/19 07:16:49;;;;;;;21.70;17.03;;;2.30;99.90;;;;;;5051216;28;20436;-76
2020/12/19 07:19:21;;;;;;;21.30;17.40;;;2.20;99.90;;;;;;5051004;28;20855;-75
2020/12/19 07:21:48;;;;;;;24.80;18.93;;;2.30;99.90;;;;;;5050833;28;21009;-76
2020/12/19 07:24:14;;;;;;;19.27;17.27;;;2.20;99.90;;;;;;5050137;28;20978;-75
2020/12/19 07:26:42;;;;;;;18.60;15.80;;;2.20;99.90;;;;;;5050757;28;21019;-75
2020/12/19 07:29:16;;;;;;;21.93;16.37;;;2.20;99.90;;;;;;5050569;28;20539;-76
2020/12/19 07:31:44;;;;;;;20.07;16.87;;;2.10;99.90;;;;;;5050830;28;20439;-76
2020/12/19 07:34:11;;;;;;;19.30;16.57;;;2.00;99.90;;;;;;5049987;28;20547;-76
2020/12/19 07:36:40;;;;;;;17.20;15.40;;;1.90;99.90;;;;;;5050778;28;20543;-75
2020/12/19 07:39:07;;;;;;;18.47;15.10;;;1.90;99.90;;;;;;5050436;28;20840;-76
2020/12/19 07:41:34;;;;;;;20.40;15.80;;;1.90;99.90;;;;;;5050766;28;20475;-76
2020/12/19 07:44:12;;;;;;;19.80;16.80;;;1.90;99.90;;;;;;5049565;28;20539;-76
2020/12/19 07:46:53;;;;;;;17.57;15.63;;;1.80;99.90;;;;;;5050670;28;20531;-76
2020/12/19 07:49:47;;;;;;;21.47;15.83;;;1.80;99.90;;;;;;5050327;28;20518;-76
2020/12/19 07:52:19;;;;;;;21.33;17.00;;;1.90;99.90;;;;;;5050763;28;20523;-76
2020/12/19 07:54:54;;;;;;;19.03;17.03;;;2.00;99.90;;;;;;5049536;28;20494;-75
2020/12/19 07:57:21;;;;;;;23.07;16.97;;;2.10;99.90;;;;;;5050105;28;20813;-76
2020/12/19 07:59:48;;;;;;;19.40;17.40;;;2.10;99.90;;;;;;5050110;28;20733;-74
2020/12/19 08:02:17;;;;;;;22.10;17.07;;;2.20;99.90;;;;;;5050123;28;20485;-74
2020/12/19 08:04:53;;;;;;;22.00;17.73;;;2.20;99.90;;;;;;5049607;28;20953;-74
2020/12/19 08:07:21;;;;;;;24.20;19.77;;;2.30;99.90;;;;;;5049921;28;20576;-74
2020/12/19 08:09:48;;;;;;;25.53;18.67;;;2.50;99.90;;;;;;5050391;28;20448;-75
2020/12/19 08:12:15;;;;;;;25.50;18.37;;;2.60;99.90;;;;;;5050160;28;20497;-74
2020/12/19 08:14:43;;;;;;;22.43;17.07;;;2.70;99.90;;;;;;5049192;28;20483;-74
2020/12/19 08:17:13;;;;;;;23.20;18.73;;;2.80;99.90;;;;;;5050547;28;20486;-74
2020/12/19 08:19:42;;;;;;;18.73;16.73;;;2.80;99.90;;;;;;5050155;28;20539;-75
2020/12/19 08:22:09;;;;;;;21.30;16.73;;;2.90;99.90;;;;;;5049562;28;20480;-75
2020/12/19 08:24:36;;;;;;;20.37;16.70;;;3.00;99.90;;;;;;5049168;28;20551;-74
2020/12/19 08:27:25;;;;;;;18.43;16.23;;;3.10;99.90;;;;;;5049718;28;20452;-75
2020/12/19 08:30:06;;;;;;;19.57;15.83;;;3.30;99.90;;;;;;5049974;28;20518;-75
2020/12/19 08:32:34;;;;;;;21.57;16.87;;;3.40;99.90;;;;;;5049713;28;20527;-75
2020/12/19 08:35:00;;;;;;;19.00;16.47;;;3.40;99.90;;;;;;5049322;28;20464;-75
2020/12/19 08:37:27;;;;;;;18.87;15.70;;;3.50;99.90;;;;;;5050086;28;20530;-75
2020/12/19 08:40:07;;;;;;;19.20;17.10;;;3.70;99.90;;;;;;5050500;28;21042;-77
2020/12/19 08:42:34;;;;;;;20.03;16.50;;;3.80;99.90;;;;;;5050051;28;20435;-76
2020/12/19 08:45:21;;;;;;;20.17;16.60;;;3.80;99.90;;;;;;5049656;28;20608;-76
2020/12/19 08:47:52;;;;;;;19.37;17.30;;;4.00;99.90;;;;;;5050702;28;20699;-76
2020/12/19 08:50:29;;;;;;;18.03;16.23;;;4.00;99.90;;;;;;5051410;28;20516;-75
2020/12/19 08:53:11;;;;;;;16.17;14.30;;;4.20;99.90;;;;;;5054296;28;20503;-76
2020/12/19 08:55:39;;;;;;;17.13;15.30;;;4.10;99.90;;;;;;5056682;28;20562;-77
2020/12/19 08:58:06;;;;;;;18.03;14.87;;;4.20;99.90;;;;;;5051874;28;20931;-77
2020/12/19 09:00:34;;;;;;;18.40;15.03;;;4.30;99.90;;;;;;5049976;28;20978;-76
2020/12/19 09:03:07;;;;;;;16.93;13.90;;;4.40;99.90;;;;;;5051040;28;20451;-76
2020/12/19 09:05:36;;;;;;;14.10;12.70;;;4.40;99.90;;;;;;5050002;28;21041;-76
2020/12/19 09:08:03;;;;;;;14.83;13.10;;;4.50;99.90;;;;;;5051163;28;20466;-71
2020/12/19 09:10:31;;;;;;;14.77;12.60;;;4.60;99.90;;;;;;5050141;28;20530;-77
2020/12/19 09:13:22;;;;;;;15.00;13.20;;;4.60;99.90;;;;;;5050119;28;21157;-72
2020/12/19 09:15:49;;;;;;;14.63;13.13;;;4.70;99.90;;;;;;5032330;28;20945;-76
2020/12/19 09:18:19;;;;;;;17.73;13.70;;;4.70;99.90;;;;;;5051806;28;20527;-76
2020/12/19 09:20:49;;;;;;;15.27;13.07;;;4.80;99.90;;;;;;5051546;28;20511;-78
2020/12/19 09:23:16;;;;;;;14.87;13.43;;;4.80;99.90;;;;;;5051750;28;20856;-76
2020/12/19 09:25:42;;;;;;;14.97;13.50;;;4.90;99.90;;;;;;5053568;28;20504;-74
2020/12/19 09:28:08;;;;;;;13.93;12.50;;;5.00;99.90;;;;;;5051261;28;20539;-77
2020/12/19 09:30:35;;;;;;;15.27;13.20;;;5.10;99.90;;;;;;5051988;28;20526;-80
2020/12/19 09:33:01;;;;;;;13.37;12.03;;;5.20;99.90;;;;;;5053263;28;20543;-78
2020/12/19 09:35:29;;;;;;;18.00;13.93;;;5.20;99.90;;;;;;5050946;28;20459;-75
2020/12/19 09:37:56;;;;;;;15.07;12.20;;;5.30;99.90;;;;;;5055707;28;20444;-79
2020/12/19 09:40:22;;;;;;;18.67;13.20;;;5.40;99.90;;;;;;5052709;28;20436;-75
2020/12/19 09:42:49;;;;;;;14.80;12.60;;;5.40;99.90;;;;;;5050192;28;20836;-79
2020/12/19 09:45:16;;;;;;;14.07;12.57;;;5.50;99.90;;;;;;5049470;28;21031;-75
2020/12/19 09:47:42;;;;;;;13.60;12.20;;;5.50;99.90;;;;;;5053118;28;20542;-76
2020/12/19 09:50:09;;;;;;;12.80;11.50;;;5.60;99.90;;;;;;5056443;28;21003;-79
2020/12/19 09:52:37;;;;;;;14.50;13.00;;;5.70;99.90;;;;;;5054614;28;20445;-77
2020/12/19 09:55:04;;;;;;;14.30;11.83;;;5.80;99.90;;;;;;5051622;28;20535;-72
2020/12/19 09:57:31;;;;;;;12.13;10.93;;;5.90;99.90;;;;;;5051676;28;20439;-72
2020/12/19 09:59:58;;;;;;;13.13;11.27;;;6.00;99.90;;;;;;5050189;28;20487;-76
2020/12/19 10:02:24;;;;;;;11.70;10.50;;;6.20;99.90;;;;;;5054036;28;20914;-78
2020/12/19 10:04:51;;;;;;;11.63;10.47;;;6.30;99.90;;;;;;5067594;28;21033;-80
2020/12/19 10:07:17;;;;;;;12.63;10.40;;;6.60;99.90;;;;;;5046068;28;20520;-73
2020/12/19 10:09:45;;;;;;;10.97;8.33;;;7.00;99.90;;;;;;5044211;28;20476;-73
2020/12/19 10:12:12;;;;;;;8.97;8.10;;;7.30;99.90;;;;;;5053936;28;21254;-77
2020/12/19 10:14:38;;;;;;;10.47;9.47;;;7.60;99.90;;;;;;5052741;28;20889;-78
2020/12/19 10:17:05;;;;;;;9.07;8.17;;;7.80;99.90;;;;;;5052408;28;20587;-72
2020/12/19 10:19:32;;;;;;;11.03;9.93;;;8.10;99.90;;;;;;5059030;28;20513;-79
2020/12/19 10:21:59;;;;;;;9.80;8.90;;;8.80;99.90;;;;;;5061503;28;20483;-73
2020/12/19 10:24:26;;;;;;;8.17;7.30;;;9.90;99.90;;;;;;5045278;28;20539;-78
2020/12/19 10:26:53;;;;;;;8.63;7.33;;;11.00;99.90;;;;;;5052760;28;20506;-77
2020/12/19 10:29:19;;;;;;;8.40;7.60;;;11.80;99.90;;;;;;5052231;28;20444;-77
2020/12/19 10:31:46;;;;;;;6.70;5.93;;;12.20;99.90;;;;;;5049899;28;20963;-76
2020/12/19 10:34:12;;;;;;;7.40;6.57;;;12.50;99.90;;;;;;5030781;28;20468;-77
2020/12/19 10:36:39;;;;;;;6.40;5.60;;;12.80;99.90;;;;;;5042461;28;20526;-78
2020/12/19 10:39:06;;;;;;;7.33;6.40;;;13.10;99.90;;;;;;5051804;28;20476;-78
2020/12/19 10:41:32;;;;;;;6.77;6.17;;;13.20;99.90;;;;;;5051107;28;20486;-75
2020/12/19 10:43:59;;;;;;;7.97;7.17;;;12.70;99.90;;;;;;5050766;28;20569;-75
2020/12/19 10:46:28;;;;;;;6.87;6.17;;;12.20;99.90;;;;;;5048416;28;20444;-75
2020/12/19 10:48:55;;;;;;;7.13;6.43;;;11.70;99.90;;;;;;5043661;28;20642;-76
2020/12/19 10:51:27;;;;;;;9.33;7.23;;;11.30;99.90;;;;;;5035761;28;20851;-75
2020/12/19 10:53:53;;;;;;;8.23;6.60;;;10.80;99.90;;;;;;5029755;28;20472;-76
2020/12/19 10:56:20;;;;;;;8.07;6.30;;;10.60;99.90;;;;;;5039504;28;20554;-75
2020/12/19 10:58:46;;;;;;;7.10;6.10;;;10.30;99.90;;;;;;5030970;28;20445;-75
2020/12/19 11:01:13;;;;;;;7.63;6.37;;;10.10;99.90;;;;;;5041430;28;20705;-75
2020/12/19 11:03:42;;;;;;;7.60;6.63;;;10.00;99.90;;;;;;5044464;28;20482;-75
2020/12/19 11:06:08;;;;;;;7.30;6.20;;;9.80;99.90;;;;;;5041958;28;20476;-76
2020/12/19 11:08:35;;;;;;;6.37;5.77;;;9.70;99.90;;;;;;5042256;28;20529;-74
2020/12/19 11:11:01;;;;;;;6.03;5.47;;;9.80;99.90;;;;;;5047982;28;20497;-75
2020/12/19 11:13:28;;;;;;;7.23;5.60;;;9.80;99.90;;;;;;5036870;28;20452;-75
2020/12/19 11:15:54;;;;;;;9.27;6.93;;;9.80;99.90;;;;;;5040970;28;20472;-75
2020/12/19 11:18:21;;;;;;;7.67;5.80;;;9.90;99.90;;;;;;5048122;28;20464;-77
2020/12/19 11:20:50;;;;;;;6.80;5.90;;;10.10;99.90;;;;;;5050508;28;20922;-74
2020/12/19 11:23:19;;;;;;;6.93;5.90;;;10.50;99.90;;;;;;5048314;28;20479;-75
2020/12/19 11:25:46;;;;;;;7.00;5.77;;;10.80;99.90;;;;;;5042696;28;20851;-75
2020/12/19 11:28:12;;;;;;;6.17;5.57;;;10.90;99.90;;;;;;5036228;28;20479;-72
2020/12/19 11:30:38;;;;;;;6.13;5.53;;;11.00;99.90;;;;;;5028120;28;20540;-73
2020/12/19 11:33:05;;;;;;;6.60;5.90;;;11.10;99.90;;;;;;5029059;28;20484;-72
2020/12/19 11:35:32;;;;;;;7.17;6.30;;;11.10;99.90;;;;;;5028959;28;20544;-73
2020/12/19 11:37:58;;;;;;;5.83;5.23;;;11.00;99.90;;;;;;5029127;28;20547;-72
2020/12/19 11:40:25;;;;;;;6.40;5.80;;;10.90;99.90;;;;;;5028745;28;20964;-73
2020/12/19 11:42:51;;;;;;;6.53;5.87;;;10.90;99.90;;;;;;5028871;28;20869;-73
2020/12/19 11:45:18;;;;;;;6.67;5.97;;;10.90;99.90;;;;;;5028702;28;20469;-75
2020/12/19 11:47:44;;;;;;;6.40;5.30;;;10.90;99.90;;;;;;5037115;28;20448;-72
2020/12/19 11:50:10;;;;;;;7.23;6.50;;;10.80;99.90;;;;;;5038511;28;21033;-74
2020/12/19 11:52:38;;;;;;;6.47;5.40;;;10.80;99.90;;;;;;5041335;28;20475;-74
2020/12/19 11:55:04;;;;;;;6.87;5.37;;;10.70;99.90;;;;;;5036089;28;20473;-75
2020/12/19 11:57:30;;;;;;;8.70;5.80;;;10.70;99.90;;;;;;5040582;28;20892;-77
2020/12/19 11:59:57;;;;;;;6.77;6.17;;;10.80;99.90;;;;;;5047618;28;20476;-74
2020/12/19 12:02:23;;;;;;;8.20;6.30;;;10.90;99.90;;;;;;5037828;28;20512;-73
2020/12/19 12:04:50;;;;;;;6.63;5.90;;;11.10;99.90;;;;;;5035889;28;20887;-74
2020/12/19 12:07:16;;;;;;;7.77;5.70;;;11.30;99.90;;;;;;5039069;28;20480;-76
2020/12/19 12:09:44;;;;;;;6.83;6.00;;;11.50;99.90;;;;;;5048321;28;20555;-74
2020/12/19 12:12:10;;;;;;;9.83;6.77;;;11.60;99.90;;;;;;5047168;28;20531;-74
2020/12/19 12:14:36;;;;;;;10.73;6.57;;;11.80;99.90;;;;;;5038815;28;20586;-74
2020/12/19 12:17:03;;;;;;;7.80;6.43;;;11.90;99.90;;;;;;5047002;28;21058;-75
2020/12/19 12:19:29;;;;;;;9.00;8.10;;;12.10;99.90;;;;;;5043312;28;20535;-74
2020/12/19 12:21:56;;;;;;;10.67;6.57;;;12.30;99.90;;;;;;5027099;28;20472;-73
2020/12/19 12:24:23;;;;;;;8.70;7.40;;;12.40;99.90;;;;;;5043401;28;20467;-75
2020/12/19 12:26:51;;;;;;;7.03;6.37;;;12.50;99.90;;;;;;5045864;28;20447;-78
2020/12/19 12:29:18;;;;;;;7.90;7.10;;;12.60;99.90;;;;;;5049233;28;20505;-77
2020/12/19 12:31:44;;;;;;;7.30;6.60;;;12.70;99.90;;;;;;5047366;28;20790;-77
2020/12/19 12:34:10;;;;;;;9.03;7.40;;;12.70;99.90;;;;;;5034475;28;20471;-75
2020/12/19 12:36:37;;;;;;;8.87;7.80;;;12.60;99.90;;;;;;5037820;28;20483;-75
2020/12/19 12:39:04;;;;;;;9.13;6.97;;;12.40;99.90;;;;;;5038255;28;20676;-76
2020/12/19 12:41:30;;;;;;;7.90;7.10;;;12.20;99.90;;;;;;5026912;28;20491;-74